Time;durP1;ratioP1;P1;durP2;ratioP2;P2;SDS_P1;SDS_P2;PMS_P1;PMS_P2;Temp;Humidity;BMP_temperature;BMP_pressure;BME280_temperature;BME280_humidity;BME280_pressure;Samples;Min_cycle;Max_cycle;Signal;HPM_P1;HPM_P2
2023/01/08 00:01:31;;;;;;;5.90;4.80;;;8.70;99.90;;;;;;4702697;28;10000252;-77
2023/01/08 00:03:56;;;;;;;5.95;4.70;;;8.70;99.90;;;;;;5050102;28;20433;-76
2023/01/08 00:06:22;;;;;;;6.05;4.72;;;8.70;99.90;;;;;;5049597;28;20029;-77
2023/01/08 00:08:48;;;;;;;6.93;4.97;;;8.70;99.90;;;;;;5049853;28;20420;-77
2023/01/08 00:11:14;;;;;;;7.22;4.88;;;8.80;99.90;;;;;;5058143;28;20032;-77
2023/01/08 00:13:40;;;;;;;7.45;4.55;;;8.80;99.90;;;;;;5059089;28;20047;-76
2023/01/08 00:16:08;;;;;;;5.60;4.82;;;8.80;99.90;;;;;;5062837;28;20759;-77
2023/01/08 00:18:34;;;;;;;6.60;4.80;;;8.80;99.90;;;;;;5054911;28;20069;-77
2023/01/08 00:21:00;;;;;;;7.93;5.10;;;8.80;99.90;;;;;;5058113;28;20017;-77
2023/01/08 00:23:26;;;;;;;8.20;5.30;;;8.80;99.90;;;;;;5048965;28;20392;-77
2023/01/08 00:25:51;;;;;;;7.20;4.97;;;8.80;99.90;;;;;;5058079;28;20028;-76
2023/01/08 00:28:19;;;;;;;7.65;4.60;;;8.80;99.90;;;;;;5053518;28;20428;-76
2023/01/08 00:30:44;;;;;;;7.28;4.70;;;8.80;99.90;;;;;;5056314;28;20045;-76
2023/01/08 00:33:10;;;;;;;6.05;4.57;;;8.80;99.90;;;;;;5055328;28;20021;-76
2023/01/08 00:35:39;;;;;;;6.40;4.70;;;8.80;99.90;;;;;;5061172;28;20034;-77
2023/01/08 00:38:06;;;;;;;7.03;4.65;;;8.80;99.90;;;;;;5062576;28;20036;-77
2023/01/08 00:40:33;;;;;;;9.00;4.65;;;8.80;99.90;;;;;;5053066;28;20116;-76
2023/01/08 00:42:59;;;;;;;6.45;4.60;;;8.70;99.90;;;;;;5056452;28;20501;-76
2023/01/08 00:45:25;;;;;;;5.95;4.63;;;8.70;99.90;;;;;;5062840;28;20036;-76
2023/01/08 00:47:51;;;;;;;6.07;4.85;;;8.70;99.90;;;;;;5063070;28;20041;-76
2023/01/08 00:50:16;;;;;;;8.02;4.70;;;8.70;99.90;;;;;;5057199;28;20133;-76
2023/01/08 00:52:42;;;;;;;8.00;4.47;;;8.70;99.90;;;;;;5059082;28;20039;-76
2023/01/08 00:55:08;;;;;;;5.80;4.15;;;8.70;99.90;;;;;;5057219;28;20035;-77
2023/01/08 00:57:37;;;;;;;6.72;4.97;;;8.70;99.90;;;;;;5062011;28;20017;-76
2023/01/08 01:00:05;;;;;;;7.63;4.93;;;8.80;99.90;;;;;;5064721;28;20028;-76
2023/01/08 01:02:33;;;;;;;6.57;4.90;;;8.70;99.90;;;;;;5048015;28;20484;-77
2023/01/08 01:04:58;;;;;;;7.90;5.30;;;8.70;99.90;;;;;;5059198;28;20020;-76
2023/01/08 01:07:24;;;;;;;6.05;5.15;;;8.80;99.90;;;;;;5054120;28;20009;-76
2023/01/08 01:09:50;;;;;;;5.88;4.88;;;8.80;99.90;;;;;;5062448;28;20204;-76
2023/01/08 01:12:15;;;;;;;7.28;4.90;;;8.80;99.90;;;;;;5060015;28;20029;-76
2023/01/08 01:14:41;;;;;;;8.85;4.68;;;8.80;99.90;;;;;;5063627;28;20473;-76
2023/01/08 01:17:06;;;;;;;6.22;4.90;;;8.80;99.90;;;;;;5063029;28;20093;-76
2023/01/08 01:19:32;;;;;;;5.93;4.55;;;8.80;99.90;;;;;;5060330;28;20495;-76
2023/01/08 01:21:58;;;;;;;8.98;5.07;;;8.80;99.90;;;;;;5055218;28;20032;-77
2023/01/08 01:24:24;;;;;;;6.30;4.50;;;8.80;99.90;;;;;;5060440;28;20086;-77
2023/01/08 01:26:55;;;;;;;7.72;4.97;;;8.80;99.90;;;;;;5065898;28;20031;-77
2023/01/08 01:29:20;;;;;;;7.43;5.10;;;8.80;99.90;;;;;;5062687;28;20032;-77
2023/01/08 01:31:46;;;;;;;7.20;5.30;;;8.70;99.90;;;;;;5059137;28;20036;-77
2023/01/08 01:34:11;;;;;;;6.72;4.95;;;8.70;99.90;;;;;;5062402;28;20492;-77
2023/01/08 01:36:37;;;;;;;7.93;5.40;;;8.70;99.90;;;;;;5058755;28;20420;-77
2023/01/08 01:39:03;;;;;;;9.73;5.30;;;8.70;99.90;;;;;;5062095;28;20059;-76
2023/01/08 01:41:36;;;;;;;5.88;4.80;;;8.70;99.90;;;;;;5063210;28;20032;-77
2023/01/08 01:44:36;;;;;;;8.30;5.45;;;8.70;99.90;;;;;;5060359;28;20016;-76
2023/01/08 01:47:06;;;;;;;7.45;5.25;;;8.70;99.90;;;;;;5063724;28;20091;-77
2023/01/08 01:49:33;;;;;;;9.02;4.78;;;8.70;99.90;;;;;;5053712;28;20186;-77
2023/01/08 01:52:03;;;;;;;7.53;4.97;;;8.60;99.90;;;;;;5068791;28;20759;-77
2023/01/08 01:54:30;;;;;;;8.32;5.28;;;8.70;99.90;;;;;;5063823;28;20345;-77
2023/01/08 01:56:56;;;;;;;6.05;4.95;;;8.60;99.90;;;;;;5060448;28;20278;-76
2023/01/08 01:59:21;;;;;;;5.53;4.63;;;8.70;99.90;;;;;;5057922;28;20055;-77
2023/01/08 02:01:48;;;;;;;8.10;5.18;;;8.70;99.90;;;;;;5055522;28;20503;-77
2023/01/08 02:04:14;;;;;;;11.57;5.05;;;8.70;99.90;;;;;;5062013;28;20025;-77
2023/01/08 02:07:03;;;;;;;10.52;5.40;;;8.70;99.90;;;;;;5065036;28;20033;-76
2023/01/08 02:09:40;;;;;;;8.05;5.93;;;8.70;99.90;;;;;;5059636;28;20029;-77
2023/01/08 02:12:18;;;;;;;8.20;5.53;;;8.70;99.90;;;;;;5057098;28;20104;-77
2023/01/08 02:15:20;;;;;;;8.18;6.00;;;8.70;99.90;;;;;;5048984;28;20032;-76
2023/01/08 02:18:01;;;;;;;9.25;5.93;;;8.70;99.90;;;;;;5052872;28;20029;-77
2023/01/08 02:20:39;;;;;;;7.93;5.53;;;8.70;99.90;;;;;;5056735;28;20591;-76
2023/01/08 02:23:37;;;;;;;9.40;5.88;;;8.70;99.90;;;;;;5068368;28;20525;-77
2023/01/08 02:26:09;;;;;;;9.45;5.95;;;8.70;99.90;;;;;;5072241;28;20027;-76
2023/01/08 02:28:57;;;;;;;8.10;6.07;;;8.70;99.90;;;;;;5078192;28;20040;-77
2023/01/08 02:31:25;;;;;;;8.45;5.90;;;8.80;99.90;;;;;;5060208;28;20566;-76
2023/01/08 02:33:51;;;;;;;9.07;6.50;;;8.70;99.90;;;;;;5059925;28;20439;-76
2023/01/08 02:36:26;;;;;;;8.82;5.80;;;8.80;99.90;;;;;;5063044;28;20146;-77
2023/01/08 02:39:17;;;;;;;7.78;6.28;;;8.80;99.90;;;;;;5062302;28;20024;-77
2023/01/08 02:42:05;;;;;;;7.38;6.05;;;8.80;99.90;;;;;;5019987;28;20028;-77
2023/01/08 02:45:07;;;;;;;7.80;6.07;;;8.80;99.90;;;;;;5054409;28;20025;-77
2023/01/08 02:47:40;;;;;;;8.80;6.32;;;8.80;99.90;;;;;;5052662;28;20049;-77
2023/01/08 02:50:14;;;;;;;11.45;6.13;;;8.80;99.90;;;;;;5056408;28;20323;-77
2023/01/08 02:52:58;;;;;;;9.85;6.38;;;8.80;99.90;;;;;;5050272;28;20477;-77
2023/01/08 02:55:26;;;;;;;10.50;6.22;;;8.70;99.90;;;;;;5053579;28;20439;-77
2023/01/08 02:57:52;;;;;;;8.10;6.15;;;8.70;99.90;;;;;;5069885;28;20035;-76
2023/01/08 03:00:18;;;;;;;10.00;6.82;;;8.70;99.90;;;;;;5057255;28;20299;-77
2023/01/08 03:02:46;;;;;;;11.82;7.10;;;8.60;99.90;;;;;;5055955;28;20328;-77
2023/01/08 03:05:21;;;;;;;10.07;6.78;;;8.60;99.90;;;;;;5065385;28;20082;-77
2023/01/08 03:07:47;;;;;;;9.57;6.57;;;8.60;99.90;;;;;;5080664;28;20036;-77
2023/01/08 03:10:13;;;;;;;9.38;6.53;;;8.50;99.90;;;;;;5051443;28;20057;-76
2023/01/08 03:12:44;;;;;;;8.43;6.18;;;8.50;99.90;;;;;;5057545;28;20106;-76
2023/01/08 03:15:16;;;;;;;9.63;5.97;;;8.50;99.90;;;;;;5059219;28;20032;-77
2023/01/08 03:17:48;;;;;;;7.80;6.13;;;8.50;99.90;;;;;;5063697;28;20029;-77
2023/01/08 03:20:18;;;;;;;7.88;6.10;;;8.50;99.90;;;;;;5074718;28;20512;-76
2023/01/08 03:22:48;;;;;;;9.25;5.78;;;8.50;99.90;;;;;;5069355;28;20024;-76
2023/01/08 03:25:16;;;;;;;8.45;6.00;;;8.50;99.90;;;;;;5056144;28;20056;-76
2023/01/08 03:27:47;;;;;;;9.93;5.97;;;8.50;99.90;;;;;;5059719;28;20024;-76
2023/01/08 03:30:13;;;;;;;6.95;5.97;;;8.50;99.90;;;;;;5060393;28;20487;-76
2023/01/08 03:32:42;;;;;;;10.18;6.63;;;8.50;99.90;;;;;;5055169;28;20036;-76
2023/01/08 03:35:10;;;;;;;9.40;6.35;;;8.50;99.90;;;;;;5054667;28;20025;-76
2023/01/08 03:37:40;;;;;;;11.00;6.57;;;8.50;99.90;;;;;;5060260;28;20028;-76
2023/01/08 03:40:06;;;;;;;9.13;6.80;;;8.50;99.90;;;;;;5065854;28;20251;-76
2023/01/08 03:42:32;;;;;;;10.85;6.80;;;8.40;99.90;;;;;;5056764;28;20046;-76
2023/01/08 03:45:01;;;;;;;9.90;6.95;;;8.50;99.90;;;;;;5056496;28;20631;-76
2023/01/08 03:47:30;;;;;;;10.45;7.13;;;8.40;99.90;;;;;;5058259;28;20055;-76
2023/01/08 03:50:01;;;;;;;9.68;6.90;;;8.40;99.90;;;;;;5058390;28;20035;-76
2023/01/08 03:52:31;;;;;;;10.70;6.95;;;8.40;99.90;;;;;;5058184;28;20033;-77
2023/01/08 03:54:57;;;;;;;8.98;7.00;;;8.40;99.90;;;;;;5054771;28;20396;-76
2023/01/08 03:57:23;;;;;;;8.93;7.25;;;8.40;99.90;;;;;;5054855;28;20020;-76
2023/01/08 03:59:48;;;;;;;9.23;7.22;;;8.40;99.90;;;;;;5062890;28;20077;-76
2023/01/08 04:02:15;;;;;;;11.70;7.30;;;8.40;99.90;;;;;;5055922;28;20028;-76
2023/01/08 04:04:41;;;;;;;12.55;6.88;;;8.40;99.90;;;;;;5058320;28;20032;-76
2023/01/08 04:07:07;;;;;;;9.48;7.28;;;8.40;99.90;;;;;;5059644;28;20048;-76
2023/01/08 04:09:32;;;;;;;10.32;7.68;;;8.40;99.90;;;;;;5052296;28;20025;-76
2023/01/08 04:11:58;;;;;;;9.63;7.57;;;8.40;99.90;;;;;;5056447;28;20023;-76
2023/01/08 04:14:23;;;;;;;9.93;7.53;;;8.30;99.90;;;;;;5060171;28;20127;-76
2023/01/08 04:16:49;;;;;;;9.93;7.70;;;8.40;99.90;;;;;;5059532;28;20025;-75
2023/01/08 04:19:15;;;;;;;9.02;7.57;;;8.40;99.90;;;;;;5060447;28;20056;-75
2023/01/08 04:21:40;;;;;;;9.65;7.97;;;8.30;99.90;;;;;;5055930;28;20497;-75
2023/01/08 04:24:06;;;;;;;9.98;7.72;;;8.40;99.90;;;;;;5054691;28;20017;-75
2023/01/08 04:26:31;;;;;;;10.77;8.10;;;8.40;99.90;;;;;;5061978;28;20031;-75
2023/01/08 04:28:57;;;;;;;11.02;8.07;;;8.40;99.90;;;;;;5055998;28;20051;-74
2023/01/08 04:31:23;;;;;;;10.63;8.10;;;8.40;99.90;;;;;;5066361;28;20594;-75
2023/01/08 04:33:48;;;;;;;12.13;8.90;;;8.40;99.90;;;;;;5057378;28;20032;-74
2023/01/08 04:36:14;;;;;;;15.52;8.95;;;8.40;99.90;;;;;;5061011;28;20427;-74
2023/01/08 04:38:40;;;;;;;10.98;8.68;;;8.40;99.90;;;;;;5062262;28;20141;-75
2023/01/08 04:41:05;;;;;;;12.07;9.43;;;8.40;99.90;;;;;;5053307;28;20219;-75
2023/01/08 04:43:31;;;;;;;14.57;9.63;;;8.40;99.90;;;;;;5058890;28;20473;-75
2023/01/08 04:46:02;;;;;;;12.25;9.52;;;8.30;99.90;;;;;;5061030;28;20071;-74
2023/01/08 04:48:29;;;;;;;13.43;9.85;;;8.30;99.90;;;;;;5062938;28;20042;-75
2023/01/08 04:50:57;;;;;;;15.52;10.07;;;8.30;99.90;;;;;;5062954;28;20068;-75
2023/01/08 04:53:23;;;;;;;12.75;9.75;;;8.30;99.90;;;;;;5057650;28;20023;-74
2023/01/08 04:55:48;;;;;;;15.32;9.10;;;8.40;99.90;;;;;;5063717;28;20032;-75
2023/01/08 04:58:14;;;;;;;12.20;9.50;;;8.30;99.90;;;;;;5061917;28;20035;-74
2023/01/08 05:00:40;;;;;;;14.68;9.80;;;8.40;99.90;;;;;;5060510;28;20024;-74
2023/01/08 05:03:05;;;;;;;14.85;10.30;;;8.40;99.90;;;;;;5062850;28;20290;-74
2023/01/08 05:05:33;;;;;;;13.63;9.60;;;8.40;99.90;;;;;;5060932;28;20170;-74
2023/01/08 05:07:58;;;;;;;13.13;9.95;;;8.40;99.90;;;;;;5061717;28;20028;-73
2023/01/08 05:10:24;;;;;;;12.10;9.20;;;8.40;99.90;;;;;;5061925;28;20027;-73
2023/01/08 05:12:50;;;;;;;14.15;9.55;;;8.40;99.90;;;;;;5061345;28;21020;-73
2023/01/08 05:15:15;;;;;;;13.35;9.75;;;8.40;99.90;;;;;;5055758;28;20016;-73
2023/01/08 05:17:41;;;;;;;12.93;9.93;;;8.40;99.90;;;;;;5068653;28;20352;-73
2023/01/08 05:20:07;;;;;;;15.77;9.35;;;8.40;99.90;;;;;;5062555;28;20036;-73
2023/01/08 05:22:33;;;;;;;13.93;9.40;;;8.40;99.90;;;;;;5062628;28;20553;-73
2023/01/08 05:24:58;;;;;;;13.50;9.68;;;8.40;99.90;;;;;;5060190;28;20042;-72
2023/01/08 05:27:24;;;;;;;14.57;9.48;;;8.40;99.90;;;;;;5061198;28;20025;-73
2023/01/08 05:29:50;;;;;;;18.75;9.45;;;8.40;99.90;;;;;;5066684;28;20085;-72
2023/01/08 05:32:17;;;;;;;13.38;9.32;;;8.30;99.90;;;;;;5059820;28;20055;-73
2023/01/08 05:34:44;;;;;;;10.98;8.98;;;8.40;99.90;;;;;;5061406;28;20252;-72
2023/01/08 05:37:10;;;;;;;13.55;9.02;;;8.40;99.90;;;;;;5068761;28;20032;-72
2023/01/08 05:39:36;;;;;;;12.15;9.27;;;8.30;99.90;;;;;;5064268;28;20039;-72
2023/01/08 05:42:03;;;;;;;16.13;8.50;;;8.30;99.90;;;;;;5059728;28;20033;-73
2023/01/08 05:44:28;;;;;;;13.90;9.48;;;8.30;99.90;;;;;;5067383;28;20024;-73
2023/01/08 05:46:54;;;;;;;15.43;9.32;;;8.30;99.90;;;;;;5064275;28;20036;-73
2023/01/08 05:49:20;;;;;;;10.70;8.77;;;8.30;99.90;;;;;;5057583;28;20020;-73
2023/01/08 05:51:47;;;;;;;12.05;9.05;;;8.30;99.90;;;;;;5063736;28;20024;-73
2023/01/08 05:54:13;;;;;;;13.90;8.30;;;8.30;99.90;;;;;;5054190;28;20170;-73
2023/01/08 05:56:39;;;;;;;12.45;8.32;;;8.30;99.90;;;;;;5065345;28;20024;-73
2023/01/08 05:59:04;;;;;;;13.57;8.80;;;8.30;99.90;;;;;;5060200;28;20414;-73
2023/01/08 06:01:32;;;;;;;10.98;8.43;;;8.30;99.90;;;;;;5060641;28;20031;-73
2023/01/08 06:03:58;;;;;;;13.15;9.25;;;8.30;99.90;;;;;;5052102;28;20483;-73
2023/01/08 06:06:24;;;;;;;13.43;8.77;;;8.30;99.90;;;;;;5062716;28;20052;-73
2023/01/08 06:08:49;;;;;;;12.45;8.32;;;8.30;99.90;;;;;;5062075;28;20063;-72
2023/01/08 06:11:15;;;;;;;9.57;8.20;;;8.30;99.90;;;;;;5060735;28;20079;-73
2023/01/08 06:13:42;;;;;;;10.68;8.85;;;8.30;99.90;;;;;;5057280;28;20063;-72
2023/01/08 06:16:09;;;;;;;12.25;7.88;;;8.20;99.90;;;;;;5058704;28;20393;-73
2023/01/08 06:18:35;;;;;;;14.00;8.10;;;8.20;99.90;;;;;;5062580;28;20427;-72
2023/01/08 06:21:01;;;;;;;9.80;7.40;;;8.30;99.90;;;;;;5062366;28;20025;-72
2023/01/08 06:23:27;;;;;;;9.55;7.25;;;8.30;99.90;;;;;;5055936;28;20104;-71
2023/01/08 06:25:53;;;;;;;9.07;7.47;;;8.20;99.90;;;;;;5055296;28;20568;-71
2023/01/08 06:28:19;;;;;;;8.13;7.13;;;8.20;99.90;;;;;;5056328;28;20032;-73
2023/01/08 06:30:45;;;;;;;8.65;6.53;;;8.30;99.90;;;;;;5058494;28;20565;-72
2023/01/08 06:33:10;;;;;;;7.70;6.50;;;8.20;99.90;;;;;;5059437;28;20056;-72
2023/01/08 06:35:36;;;;;;;7.95;6.50;;;8.20;99.90;;;;;;5054248;28;20067;-71
2023/01/08 06:38:01;;;;;;;11.27;6.18;;;8.20;99.90;;;;;;5060054;28;20491;-72
2023/01/08 06:40:27;;;;;;;8.93;6.30;;;8.30;99.90;;;;;;5058644;28;20897;-72
2023/01/08 06:42:53;;;;;;;7.70;6.15;;;8.20;99.90;;;;;;5055841;28;20255;-72
2023/01/08 06:45:18;;;;;;;7.78;6.18;;;8.20;99.90;;;;;;5060922;28;20180;-72
2023/01/08 06:47:44;;;;;;;8.27;5.60;;;8.20;99.90;;;;;;5053030;28;20132;-71
2023/01/08 06:50:10;;;;;;;6.65;5.05;;;8.20;99.90;;;;;;5057383;28;20052;-72
2023/01/08 06:52:35;;;;;;;7.85;5.40;;;8.20;99.90;;;;;;5054348;28;20024;-72
2023/01/08 06:55:01;;;;;;;7.78;5.13;;;8.20;99.90;;;;;;5062885;28;20448;-72
2023/01/08 06:57:27;;;;;;;8.02;5.40;;;8.20;99.90;;;;;;5058692;28;20056;-71
2023/01/08 06:59:52;;;;;;;7.28;4.90;;;8.20;99.90;;;;;;5054768;28;20116;-72
2023/01/08 07:02:18;;;;;;;5.78;5.07;;;8.10;99.90;;;;;;5051905;28;20123;-72
2023/01/08 07:04:44;;;;;;;7.75;5.10;;;8.10;99.90;;;;;;5054118;28;20032;-72
2023/01/08 07:07:14;;;;;;;5.72;4.32;;;8.20;99.90;;;;;;5056784;28;20208;-72
2023/01/08 07:09:40;;;;;;;6.15;4.90;;;8.20;99.90;;;;;;5061679;28;20090;-72
2023/01/08 07:12:10;;;;;;;5.65;4.78;;;8.10;99.90;;;;;;5056576;28;20447;-72
2023/01/08 07:14:36;;;;;;;5.45;4.82;;;8.10;99.90;;;;;;5058141;28;20040;-72
2023/01/08 07:17:01;;;;;;;6.70;4.90;;;8.10;99.90;;;;;;5049752;28;20162;-72
2023/01/08 07:19:27;;;;;;;6.80;5.43;;;8.10;99.90;;;;;;5051164;28;20132;-72
2023/01/08 07:21:52;;;;;;;5.70;4.93;;;8.10;99.90;;;;;;5058855;28;20126;-72
2023/01/08 07:24:18;;;;;;;5.22;4.60;;;8.10;99.90;;;;;;5057968;28;20021;-72
2023/01/08 07:26:43;;;;;;;6.50;4.97;;;8.10;99.90;;;;;;5051189;28;20028;-72
2023/01/08 07:29:09;;;;;;;6.28;4.80;;;8.10;99.90;;;;;;4352284;28;10001240;-71
2023/01/08 07:31:35;;;;;;;7.03;5.07;;;8.10;99.90;;;;;;5040087;28;20138;-72
2023/01/08 07:34:00;;;;;;;5.65;5.00;;;8.10;99.90;;;;;;5053923;28;20475;-72
2023/01/08 07:36:26;;;;;;;5.82;4.85;;;8.10;99.90;;;;;;5044885;28;20601;-72
2023/01/08 07:38:51;;;;;;;6.63;4.85;;;8.10;99.90;;;;;;5050065;28;20043;-71
2023/01/08 07:41:17;;;;;;;6.18;5.57;;;8.10;99.90;;;;;;5048877;28;20388;-71
2023/01/08 07:43:43;;;;;;;8.98;5.78;;;8.10;99.90;;;;;;5058077;28;20115;-71
2023/01/08 07:46:08;;;;;;;7.72;5.28;;;8.00;99.90;;;;;;5061916;28;20126;-71
2023/01/08 07:48:34;;;;;;;7.30;5.22;;;8.00;99.90;;;;;;5054046;28;20420;-71
2023/01/08 07:51:01;;;;;;;5.68;5.07;;;8.00;99.90;;;;;;5056298;28;20447;-71
2023/01/08 07:53:27;;;;;;;6.15;4.75;;;8.00;99.90;;;;;;5064391;28;20530;-71
2023/01/08 07:55:58;;;;;;;6.03;4.88;;;8.00;99.90;;;;;;5041577;28;20121;-71
2023/01/08 07:58:24;;;;;;;7.68;5.35;;;8.00;99.90;;;;;;5055052;28;20035;-71
2023/01/08 08:00:49;;;;;;;7.55;4.95;;;8.00;99.90;;;;;;5056057;28;20123;-71
2023/01/08 08:03:15;;;;;;;7.95;5.25;;;8.00;99.90;;;;;;5058016;28;20040;-71
2023/01/08 08:05:40;;;;;;;5.90;5.30;;;8.00;99.90;;;;;;5051664;28;20036;-71
2023/01/08 08:08:10;;;;;;;6.25;5.50;;;8.10;99.90;;;;;;5058522;28;20159;-72
2023/01/08 08:10:36;;;;;;;6.50;5.63;;;8.10;99.90;;;;;;5056579;28;20440;-71
2023/01/08 08:13:02;;;;;;;7.25;5.35;;;8.00;99.90;;;;;;5070880;28;20012;-72
2023/01/08 08:15:28;;;;;;;7.25;5.28;;;8.00;99.90;;;;;;5073529;28;20031;-72
2023/01/08 08:17:53;;;;;;;6.97;5.15;;;8.10;99.90;;;;;;5059984;28;20036;-74
2023/01/08 08:20:19;;;;;;;8.27;5.80;;;8.10;99.90;;;;;;5065002;28;20436;-74
2023/01/08 08:22:44;;;;;;;6.78;5.32;;;8.10;99.90;;;;;;5058871;28;20058;-74
2023/01/08 08:25:11;;;;;;;6.63;5.30;;;8.20;99.90;;;;;;5069001;28;20063;-74
2023/01/08 08:27:37;;;;;;;5.93;5.07;;;8.20;99.90;;;;;;5067241;28;20024;-73
2023/01/08 08:30:03;;;;;;;5.78;5.10;;;8.20;99.90;;;;;;5069221;28;20032;-72
2023/01/08 08:32:29;;;;;;;9.02;5.47;;;8.20;99.90;;;;;;5061611;28;20051;-73
2023/01/08 08:34:54;;;;;;;6.05;5.38;;;8.20;99.90;;;;;;5066714;28;20032;-72
2023/01/08 08:37:20;;;;;;;6.85;5.38;;;8.20;99.90;;;;;;5084877;28;20036;-72
2023/01/08 08:39:45;;;;;;;6.82;4.95;;;8.20;99.90;;;;;;5072996;28;20476;-73
2023/01/08 08:42:11;;;;;;;6.05;5.25;;;8.20;99.90;;;;;;5061894;28;20455;-72
2023/01/08 08:44:37;;;;;;;6.30;5.03;;;8.10;99.90;;;;;;5064766;28;20227;-72
2023/01/08 08:47:06;;;;;;;5.70;4.60;;;;;;;;;;5063791;28;20050;-75
2023/01/08 08:49:31;;;;;;;6.03;4.90;;;10.20;99.90;;;;;;5074861;28;20439;-74
2023/01/08 08:51:57;;;;;;;6.05;5.07;;;8.30;99.90;;;;;;5062444;28;20033;-74
2023/01/08 08:54:23;;;;;;;5.60;5.00;;;;;;;;;;5058520;28;20461;-74
2023/01/08 08:56:49;;;;;;;5.63;4.82;;;;;;;;;;5063523;28;20025;-74
2023/01/08 08:59:15;;;;;;;4.90;4.40;;;;;;;;;;5069005;28;20020;-74
2023/01/08 09:01:41;;;;;;;6.88;4.53;;;;;;;;;;5063701;28;20017;-75
2023/01/08 09:04:07;;;;;;;6.55;4.72;;;;;;;;;;5064252;28;20112;-75
2023/01/08 09:06:33;;;;;;;7.75;5.05;;;;;;;;;;5061743;28;20017;-74
2023/01/08 09:08:59;;;;;;;5.00;4.50;;;;;;;;;;5062152;28;20024;-75
2023/01/08 09:11:25;;;;;;;4.88;4.30;;;;;;;;;;5064243;28;20102;-75
2023/01/08 09:13:51;;;;;;;6.88;5.93;;;;;;;;;;5059876;28;20055;-75
2023/01/08 09:16:17;;;;;;;6.80;5.50;;;;;;;;;;5068372;28;20037;-75
2023/01/08 09:18:43;;;;;;;7.03;6.20;;;;;;;;;;5064305;28;20028;-75
2023/01/08 09:21:10;;;;;;;6.47;5.78;;;;;;;;;;5062923;28;20036;-75
2023/01/08 09:23:37;;;;;;;8.60;5.85;;;;;;;;;;5066429;28;20212;-75
2023/01/08 09:26:04;;;;;;;10.05;6.03;;;;;;;;;;5058770;28;20024;-76
2023/01/08 09:28:30;;;;;;;9.43;5.80;;;;;;;;;;5066053;28;20306;-75
2023/01/08 09:30:56;;;;;;;9.02;6.47;;;;;;;;;;5057669;28;20464;-75
2023/01/08 09:33:22;;;;;;;9.05;6.50;;;;;;;;;;5061074;28;20039;-76
2023/01/08 09:35:48;;;;;;;7.82;6.60;;;;;;;;;;5065467;28;20028;-76
2023/01/08 09:38:14;;;;;;;8.90;7.03;;;;;;;;;;5065374;28;20042;-76
2023/01/08 09:40:48;;;;;;;6.95;6.25;;;;;;;;;;5060402;28;20035;-76
2023/01/08 09:43:16;;;;;;;7.80;6.50;;;;;;;;;;5060339;28;20020;-76
2023/01/08 09:45:45;;;;;;;8.10;7.05;;;;;;;;;;5067675;28;20258;-76
2023/01/08 09:48:13;;;;;;;8.63;7.40;;;;;;;;;;5066085;28;20352;-76
2023/01/08 09:50:39;;;;;;;7.75;6.95;;;;;;;;;;5064645;28;20258;-76
2023/01/08 09:53:09;;;;;;;8.77;7.30;;;;;;;;;;5063868;28;20412;-76
2023/01/08 09:55:35;;;;;;;8.98;7.63;;;;;;;;;;5053990;28;20115;-75
2023/01/08 09:58:01;;;;;;;9.05;8.15;;;;;;;;;;5062210;28;20103;-76
2023/01/08 10:00:31;;;;;;;7.57;6.78;;;;;;;;;;5064795;28;20423;-75
2023/01/08 10:02:57;;;;;;;8.57;6.82;;;;;;;;;;5058589;28;20021;-76
2023/01/08 10:05:25;;;;;;;7.38;6.45;;;;;;;;;;5067802;28;20028;-75
2023/01/08 10:07:51;;;;;;;7.40;6.63;;;;;;;;;;5066502;28;20024;-75
2023/01/08 10:10:28;;;;;;;6.95;6.18;;;;;;;;;;5054432;28;20107;-76
2023/01/08 10:12:55;;;;;;;7.25;6.10;;;;;;;;;;5063184;28;20568;-75
2023/01/08 10:15:21;;;;;;;6.75;5.68;;;;;;;;;;5065137;28;20369;-76
2023/01/08 10:17:51;;;;;;;6.90;5.65;;;;;;;;;;5062431;28;20492;-76
2023/01/08 10:20:18;;;;;;;9.27;6.22;;;;;;;;;;5056686;28;20032;-76
2023/01/08 10:22:46;;;;;;;6.88;5.43;;;;;;;;;;5064619;28;20476;-75
2023/01/08 10:25:20;;;;;;;6.90;5.65;;;;;;;;;;5061944;28;20039;-75
2023/01/08 10:27:45;;;;;;;;;;;;;;;;;;5056749;28;20028;-76
2023/01/08 10:30:15;;;;;;;6.95;5.53;;;;;;;;;;5049996;28;19908;-76
2023/01/08 10:32:46;;;;;;;5.75;5.05;;;;;;;;;;5061140;28;20037;-76
2023/01/08 10:35:16;;;;;;;6.57;4.93;;;;;;;;;;5058765;28;20021;-76
2023/01/08 10:37:42;;;;;;;5.53;4.93;;;;;;;;;;5064898;28;20066;-76
2023/01/08 10:40:30;;;;;;;6.05;5.05;;;;;;;;;;5059178;28;20025;-75
2023/01/08 10:42:58;;;;;;;7.38;5.70;;;;;;;;;;5064695;28;20335;-76
2023/01/08 10:45:27;;;;;;;8.57;5.50;;;;;;;;;;5073588;28;20082;-76
2023/01/08 10:48:01;;;;;;;5.40;4.88;;;;;;;;;;5063786;28;20044;-75
2023/01/08 10:50:29;;;;;;;5.20;4.55;;;;;;;;;;5061026;28;20613;-75
2023/01/08 10:52:56;;;;;;;8.23;5.32;;;;;;;;;;5048559;28;20384;-76
2023/01/08 10:55:25;;;;;;;7.85;4.57;;;;;;;;;;5059715;28;20074;-75
2023/01/08 10:57:56;;;;;;;5.20;4.70;;;;;;;;;;5065167;28;20031;-76
2023/01/08 11:00:22;;;;;;;6.15;4.90;;;;;;;;;;5062215;28;20021;-76
2023/01/08 11:02:49;;;;;;;5.78;4.80;;;;;;;;;;5045947;28;20028;-75
2023/01/08 11:05:15;;;;;;;5.70;4.20;;;;;;;;;;5056251;28;20097;-76
2023/01/08 11:07:41;;;;;;;4.80;4.30;;;;;;;;;;5065490;28;20040;-76
2023/01/08 11:10:20;;;;;;;6.38;4.80;;;;;;;;;;5057630;28;20052;-76
2023/01/08 11:12:46;;;;;;;6.68;5.10;;;;;;;;;;5062841;28;20033;-76
2023/01/08 11:15:18;;;;;;;6.85;5.00;;;;;;;;;;5058738;28;20039;-76
2023/01/08 11:17:44;;;;;;;7.88;5.88;;;;;;;;;;5063562;28;20024;-75
2023/01/08 11:20:22;;;;;;;9.40;6.75;;;;;;;;;;5063674;28;20170;-76
2023/01/08 11:22:49;;;;;;;10.10;7.95;;;;;;;;;;5057305;28;20059;-75
2023/01/08 11:25:25;;;;;;;9.93;7.30;;;8.80;99.90;;;;;;5058746;28;20029;-75
2023/01/08 11:27:52;;;;;;;5.53;4.68;;;8.80;99.90;;;;;;5060444;28;20020;-76
2023/01/08 11:30:24;;;;;;;5.63;4.75;;;8.70;99.90;;;;;;5062487;28;20254;-76
2023/01/08 11:33:05;;;;;;;5.10;4.37;;;8.70;99.90;;;;;;5065336;28;20470;-76
2023/01/08 11:35:49;;;;;;;6.50;5.03;;;8.70;99.90;;;;;;5068233;28;20279;-76
2023/01/08 11:38:15;;;;;;;5.82;4.20;;;8.80;99.90;;;;;;5059614;28;20028;-76
2023/01/08 11:40:51;;;;;;;5.93;4.47;;;8.80;99.90;;;;;;5059269;28;20017;-76
2023/01/08 11:43:38;;;;;;;6.25;3.90;;;8.80;99.90;;;;;;5064327;28;20035;-76
2023/01/08 11:46:49;;;;;;;7.85;4.20;;;8.80;99.90;;;;;;5064017;28;20047;-76
2023/01/08 11:49:42;;;;;;;5.78;4.35;;;8.80;99.90;;;;;;5029990;28;20098;-76
2023/01/08 11:52:26;;;;;;;7.38;4.57;;;8.80;99.90;;;;;;5051016;28;20429;-76
2023/01/08 11:55:01;;;;;;;5.72;4.07;;;9.00;99.90;;;;;;5045051;28;20237;-76
2023/01/08 11:57:37;;;;;;;4.25;3.78;;;;;;;;;;5056960;28;20031;-79
2023/01/08 12:00:22;;;;;;;7.28;3.95;;;;;;;;;;5059569;28;20486;-79
2023/01/08 12:02:59;;;;;;;5.68;4.78;;;;;;;;;;5048700;28;20061;-79
2023/01/08 12:05:27;;;;;;;4.97;4.10;;;;;;;;;;5069768;28;20034;-78
2023/01/08 12:08:12;;;;;;;6.63;4.30;;;;;;;;;;5061581;28;20227;-79
2023/01/08 12:10:41;;;;;;;4.22;3.67;;;;;;;;;;5061827;28;20606;-79
2023/01/08 12:13:17;;;;;;;4.13;3.40;;;;;;;;;;5045807;28;20024;-79
2023/01/08 12:15:54;;;;;;;4.05;3.65;;;;;;;;;;5052097;28;20029;-79
2023/01/08 12:18:39;;;;;;;3.83;3.25;;;;;;;;;;5048677;28;20033;-79
2023/01/08 12:21:10;;;;;;;5.97;3.08;;;;;;;;;;5067757;28;20032;-78
2023/01/08 12:23:36;;;;;;;3.75;3.22;;;;;;;;;;5062067;28;20031;-79
2023/01/08 12:26:14;;;;;;;3.65;3.28;;;;;;;;;;5081324;28;20024;-80
2023/01/08 12:28:53;;;;;;;8.00;4.93;;;;;;;;;;5063489;28;20484;-80
2023/01/08 12:31:30;;;;;;;4.25;3.30;;;;;;;;;;5069393;28;20276;-80
2023/01/08 12:34:00;;;;;;;3.80;3.05;;;;;;;;;;5066205;28;20039;-80
2023/01/08 12:36:32;;;;;;;4.72;3.00;;;;;;;;;;5073256;28;20612;-80
2023/01/08 12:39:01;;;;;;;3.00;2.70;;;;;;;;;;5068439;28;20043;-81
2023/01/08 12:41:28;;;;;;;2.38;2.17;;;;;;;;;;5066238;28;20041;-81
2023/01/08 12:44:04;;;;;;;3.78;2.78;;;;;;;;;;5068339;28;20032;-80
2023/01/08 12:46:33;;;;;;;4.15;2.90;;;;;;;;;;5060232;28;20546;-80
2023/01/08 12:48:59;;;;;;;2.97;2.50;;;;;;;;;;5059699;28;20037;-81
2023/01/08 12:51:37;;;;;;;4.13;2.95;;;;;;;;;;5061236;28;20036;-80
2023/01/08 12:54:18;;;;;;;3.25;2.30;;;;;;;;;;5058622;28;20070;-81
2023/01/08 12:56:57;;;;;;;3.22;2.00;;;;;;;;;;5062949;28;20447;-81
2023/01/08 12:59:31;;;;;;;4.43;2.50;;;;;;;;;;5066556;28;20043;-81
2023/01/08 13:02:16;;;;;;;3.88;2.55;;;;;;;;;;5058280;28;20097;-81
2023/01/08 13:04:46;;;;;;;2.88;2.33;;;;;;;;;;5059165;28;20044;-81
2023/01/08 13:07:17;;;;;;;2.58;2.22;;;;;;;;;;5067815;28;20040;-81
2023/01/08 13:09:43;;;;;;;2.88;2.50;;;;;;;;;;5066154;28;20418;-81
2023/01/08 13:12:12;;;;;;;2.30;2.05;;;;;;;;;;5059564;28;20032;-80
2023/01/08 13:14:48;;;;;;;2.67;2.13;;;;;;;;;;5072255;28;20146;-82
2023/01/08 13:17:20;;;;;;;2.90;2.30;;;;;;;;;;5070335;28;20032;-82
2023/01/08 13:19:52;;;;;;;2.22;2.00;;;;;;;;;;5059159;28;20483;-82
2023/01/08 13:22:25;;;;;;;2.22;2.03;;;;;;;;;;5069989;28;20540;-82
2023/01/08 13:24:51;;;;;;;2.20;2.00;;;;;;;;;;5071422;28;20034;-82
2023/01/08 13:27:17;;;;;;;2.67;1.60;;;;;;;;;;5068901;28;20028;-81
2023/01/08 13:29:44;;;;;;;2.60;1.90;;;;;;;;;;5063883;28;20408;-81
2023/01/08 13:32:29;;;;;;;2.20;1.60;;;;;;;;;;5065730;28;20451;-80
2023/01/08 13:35:02;;;;;;;2.58;1.67;;;;;;;;;;5056177;28;20029;-83